createdAt,value
2023-05-11T00:01:34.708Z,97061.66
2023-05-11T00:04:36.304Z,97052.91
2023-05-11T00:07:37.856Z,97057.34
2023-05-11T00:10:39.342Z,97047.78
2023-05-11T00:13:40.895Z,97046.25
2023-05-11T00:16:42.340Z,97048.66
2023-05-11T00:19:43.824Z,97044.44
2023-05-11T00:22:45.372Z,97045.69
2023-05-11T00:25:46.892Z,97036.31
2023-05-11T00:28:48.389Z,97044.34
2023-05-11T00:31:50.265Z,97039.72
2023-05-11T00:34:51.856Z,97040.13
2023-05-11T00:37:53.494Z,97039.31
2023-05-11T00:40:55.352Z,97035.22
2023-05-11T00:43:57.834Z,97035.94
2023-05-11T00:46:59.474Z,97039.25
2023-05-11T00:50:01.164Z,97039.22
2023-05-11T00:53:03.320Z,97029.63
2023-05-11T00:56:04.923Z,97026.34
2023-05-11T00:59:06.530Z,97028.66
2023-05-11T01:02:08.165Z,97020.28
2023-05-11T01:05:10.146Z,97022.09
2023-05-11T01:08:22.294Z,97023.94
2023-05-11T01:11:30.882Z,97023.31
2023-05-11T01:14:48.542Z,97031.25
2023-05-11T01:18:19.845Z,97026.56
2023-05-11T01:21:22.026Z,97024.56
2023-05-11T01:24:49.861Z,97023.56
2023-05-11T01:28:04.698Z,97024.63
2023-05-11T01:31:10.899Z,97028.97
2023-05-11T01:34:17.985Z,97036.31
2023-05-11T01:37:23.555Z,97033.66
2023-05-11T01:40:29.169Z,97039.72
2023-05-11T01:43:35.262Z,97034.78
2023-05-11T01:46:38.093Z,97036.63
2023-05-11T01:49:43.199Z,97038.78
2023-05-11T01:52:47.476Z,97035.22
2023-05-11T01:55:51.126Z,97035.97
2023-05-11T01:58:54.951Z,97041.53
2023-05-11T02:01:58.718Z,97033.91
2023-05-11T02:05:01.823Z,97040.56
2023-05-11T02:08:05.908Z,97044.75
2023-05-11T02:11:08.198Z,97041.19
2023-05-11T02:14:11.674Z,97046.19
2023-05-11T02:17:16.330Z,97047.25
2023-05-11T02:20:20.100Z,97047.72
2023-05-11T02:23:24.812Z,97045.00
2023-05-11T02:26:26.350Z,97043.81
2023-05-11T02:29:28.042Z,97041.50
2023-05-11T02:32:33.153Z,97036.78
2023-05-11T02:35:40.812Z,97041.19
2023-05-11T02:38:45.502Z,97029.03
2023-05-11T02:41:55.192Z,97030.41
2023-05-11T02:45:07.277Z,97028.22
2023-05-11T02:48:14.948Z,97028.69
2023-05-11T02:51:19.089Z,97034.34
2023-05-11T02:54:24.822Z,97028.78
2023-05-11T02:57:28.278Z,97024.47
2023-05-11T03:00:32.259Z,97026.03
2023-05-11T03:03:34.089Z,97027.69
2023-05-11T03:06:36.970Z,97020.28
2023-05-11T03:09:41.008Z,97022.84
2023-05-11T03:12:43.327Z,97012.91
2023-05-11T03:15:45.311Z,97013.38
2023-05-11T03:18:49.051Z,97017.00
2023-05-11T03:21:52.644Z,97014.47
2023-05-11T03:24:54.395Z,97013.19
2023-05-11T03:27:57.359Z,97018.56
2023-05-11T03:30:59.100Z,97022.06
2023-05-11T03:34:01.058Z,97016.31
2023-05-11T03:37:11.396Z,97021.78
2023-05-11T03:40:15.717Z,97012.81
2023-05-11T03:43:30.312Z,97013.50
2023-05-11T03:46:33.110Z,97012.28
2023-05-11T03:49:37.782Z,96998.88
2023-05-11T03:52:40.226Z,97000.50
2023-05-11T03:55:42.411Z,97001.78
2023-05-11T03:58:44.576Z,96995.38
2023-05-11T04:01:46.070Z,97002.06
2023-05-11T04:04:48.758Z,96994.31
2023-05-11T04:07:51.047Z,97004.41
2023-05-11T04:10:53.218Z,96998.78
2023-05-11T04:13:54.701Z,97002.16
2023-05-11T04:16:56.219Z,96999.88
2023-05-11T04:19:57.740Z,97003.16
2023-05-11T04:22:59.211Z,97005.44
2023-05-11T04:26:00.734Z,96999.69
2023-05-11T04:29:02.292Z,96998.88
2023-05-11T04:32:04.013Z,97005.63
2023-05-11T04:35:05.890Z,97001.97
2023-05-11T04:38:10.619Z,96999.16
2023-05-11T04:41:13.774Z,97001.78
2023-05-11T04:44:15.591Z,96999.78
2023-05-11T04:47:17.152Z,97006.97
2023-05-11T04:50:20.815Z,97003.69
2023-05-11T04:53:23.030Z,97013.91
2023-05-11T04:56:24.835Z,97021.38
2023-05-11T04:59:26.382Z,97026.47
2023-05-11T05:02:27.936Z,97024.91
2023-05-11T05:05:29.463Z,97026.34
2023-05-11T05:08:31.203Z,97025.53
2023-05-11T05:11:33.042Z,97020.69
2023-05-11T05:14:34.643Z,97027.34
2023-05-11T05:17:36.292Z,97022.72
2023-05-11T05:20:38.032Z,97011.31
2023-05-11T05:23:39.580Z,97021.72
2023-05-11T05:26:41.198Z,97023.31
2023-05-11T05:29:43.740Z,97028.00
2023-05-11T05:32:45.652Z,97028.66
2023-05-11T05:35:47.195Z,97022.50
2023-05-11T05:38:50.757Z,97029.13
2023-05-11T05:41:52.377Z,97029.97
2023-05-11T05:44:54.514Z,97024.88
2023-05-11T05:47:57.164Z,97021.28
2023-05-11T05:51:00.216Z,97032.41
2023-05-11T05:54:02.634Z,97035.16
2023-05-11T05:57:04.907Z,97035.88
2023-05-11T06:00:06.988Z,97034.66
2023-05-11T06:03:14.321Z,97037.88
2023-05-11T06:06:16.197Z,97038.94
2023-05-11T06:09:17.932Z,97034.06
2023-05-11T06:12:19.502Z,97033.25
2023-05-11T06:15:23.299Z,97034.50
2023-05-11T06:18:31.799Z,97039.06
2023-05-11T06:21:34.786Z,97034.19
2023-05-11T06:24:36.441Z,97041.19
2023-05-11T06:27:39.006Z,97034.09
2023-05-11T16:11:55.531Z,96824.69
2023-05-11T16:14:57.510Z,96823.00
2023-05-11T16:18:00.048Z,96815.50
2023-05-11T16:21:04.114Z,96822.47
2023-05-11T16:24:05.992Z,96820.66
2023-05-11T16:27:07.578Z,96819.25
2023-05-11T16:30:22.171Z,96820.00
2023-05-11T16:33:25.749Z,96818.13
2023-05-11T16:36:29.170Z,96830.69
2023-05-11T16:39:30.639Z,96822.16
2023-05-11T16:42:32.178Z,96811.19
2023-05-11T16:45:33.861Z,96818.19
2023-05-11T16:48:35.816Z,96822.25
2023-05-11T16:51:37.324Z,96827.69
2023-05-11T16:54:39.127Z,96824.09
2023-05-11T16:57:40.634Z,96816.91
2023-05-11T17:00:42.123Z,96816.09
2023-05-11T17:03:43.599Z,96824.03
2023-05-11T17:06:45.301Z,96817.31
2023-05-11T17:09:46.794Z,96814.91
2023-05-11T17:12:48.301Z,96828.53
2023-05-11T17:15:51.412Z,96827.16
2023-05-11T17:18:53.080Z,96823.78
2023-05-11T17:21:54.661Z,96825.41
2023-05-11T17:24:56.281Z,96827.84
2023-05-11T17:27:58.054Z,96826.66
2023-05-11T17:31:08.252Z,96825.53
2023-05-11T17:34:10.228Z,96837.66
2023-05-11T17:37:23.832Z,96840.13
2023-05-11T17:40:32.469Z,96840.75
2023-05-11T17:43:36.362Z,96845.28
2023-05-11T17:46:38.306Z,96844.09
2023-05-11T17:49:39.946Z,96852.63
2023-05-11T17:52:41.940Z,96854.28
2023-05-11T17:55:43.729Z,96858.78
2023-05-11T17:58:45.475Z,96862.25
2023-05-11T18:01:47.024Z,96862.25
2023-05-11T18:04:48.636Z,96861.22
2023-05-11T18:07:50.255Z,96861.19
2023-05-11T18:10:51.730Z,96871.22
2023-05-11T18:13:53.827Z,96879.97
2023-05-11T18:16:56.203Z,96878.97
2023-05-11T18:19:57.761Z,96880.94
2023-05-11T18:22:59.476Z,96875.22
2023-05-11T18:26:00.985Z,96875.03
2023-05-11T18:29:02.515Z,96870.94
2023-05-11T18:32:04.261Z,96866.91
2023-05-11T18:35:06.132Z,96871.53
2023-05-11T18:38:07.899Z,96869.81
2023-05-11T18:41:09.482Z,96868.41
2023-05-11T18:44:11.231Z,96870.69
2023-05-11T18:47:12.830Z,96875.50
2023-05-11T18:50:14.664Z,96882.13
2023-05-11T18:53:16.135Z,96872.47
2023-05-11T18:56:17.877Z,96871.88
2023-05-11T18:59:19.423Z,96873.00
2023-05-11T19:02:21.008Z,96876.34
2023-05-11T19:05:22.537Z,96883.00
2023-05-11T19:08:24.028Z,96885.22
2023-05-11T19:11:25.606Z,96886.00
2023-05-11T19:14:27.090Z,96884.69
2023-05-11T19:17:28.643Z,96882.66
2023-05-11T19:20:30.078Z,96881.41
2023-05-11T19:23:32.176Z,96888.41
2023-05-11T19:26:33.748Z,96899.66
2023-05-11T19:29:35.514Z,96894.47
2023-05-11T19:32:37.358Z,96893.16
2023-05-11T19:35:38.862Z,96906.50
2023-05-11T19:38:40.365Z,96902.91
2023-05-11T19:41:41.821Z,96918.19
2023-05-11T19:44:43.761Z,96912.75
2023-05-11T19:47:45.384Z,96923.97
2023-05-11T19:50:47.114Z,96920.56
2023-05-11T19:53:48.692Z,96926.50
2023-05-11T19:56:50.157Z,96919.91
2023-05-11T19:59:51.804Z,96920.31
2023-05-11T20:02:54.133Z,96927.38
2023-05-11T20:05:55.798Z,96927.88
2023-05-11T20:08:57.283Z,96928.63
2023-05-11T20:11:58.772Z,96929.81
2023-05-11T20:15:00.804Z,96930.00
2023-05-11T20:18:03.008Z,96938.94
2023-05-11T20:21:04.677Z,96933.47
2023-05-11T20:24:06.443Z,96938.72
2023-05-11T20:27:09.647Z,96933.34
2023-05-11T20:30:11.890Z,96933.25
2023-05-11T20:36:17.881Z,96932.75
2023-05-11T20:39:21.770Z,96935.13
2023-05-11T20:42:23.415Z,96929.84
2023-05-11T20:45:25.077Z,96927.47
2023-05-11T20:48:39.090Z,96930.66
2023-05-11T20:51:42.246Z,96932.75
2023-05-11T20:54:43.849Z,96941.06
2023-05-11T20:57:45.327Z,96935.94
2023-05-11T21:00:46.843Z,96932.94
2023-05-11T21:03:48.365Z,96932.56
2023-05-11T21:06:50.308Z,96941.63
2023-05-11T21:09:51.745Z,96933.47
2023-05-11T21:12:53.227Z,96937.78
2023-05-11T21:15:54.819Z,96930.66
2023-05-11T21:18:56.396Z,96942.50
2023-05-11T21:21:57.993Z,96930.75
2023-05-11T21:24:59.631Z,96931.09
2023-05-11T21:28:01.164Z,96935.59
2023-05-11T21:31:05.876Z,96929.03
2023-05-11T21:34:07.660Z,96926.00
2023-05-11T21:37:09.277Z,96937.19
2023-05-11T21:40:12.033Z,96933.75
2023-05-11T21:43:14.162Z,96936.78
2023-05-11T21:46:15.766Z,96933.47
2023-05-11T21:49:17.463Z,96927.91
2023-05-11T21:52:19.021Z,96932.56
2023-05-11T21:55:20.611Z,96930.94
2023-05-11T21:58:22.086Z,96930.94
2023-05-11T22:01:23.861Z,96925.94
2023-05-11T22:04:27.082Z,96925.03
2023-05-11T22:07:28.561Z,96923.22
2023-05-11T22:10:30.030Z,96929.47
2023-05-11T22:13:31.488Z,96927.59
2023-05-11T22:16:33.110Z,96920.22
2023-05-11T22:19:34.639Z,96921.84
2023-05-11T22:22:36.861Z,96925.69
2023-05-11T22:25:38.604Z,96928.69
2023-05-11T22:28:40.077Z,96922.22
2023-05-11T22:31:43.391Z,96926.31
2023-05-11T22:34:46.705Z,96927.22
2023-05-11T22:37:48.435Z,96925.31
2023-05-11T22:40:50.025Z,96926.50
2023-05-11T22:43:51.830Z,96927.69
2023-05-11T22:46:55.181Z,96935.41
2023-05-11T22:49:56.775Z,96935.97
2023-05-11T22:52:58.268Z,96927.50
2023-05-11T22:56:07.509Z,96921.75
2023-05-11T22:59:09.075Z,96931.13
2023-05-11T23:02:10.584Z,96929.47
2023-05-11T23:05:12.453Z,96923.97
2023-05-11T23:08:14.438Z,96927.41
2023-05-11T23:11:15.943Z,96925.03
2023-05-11T23:14:17.494Z,96919.19
2023-05-11T23:17:19.487Z,96922.75
2023-05-11T23:20:21.352Z,96928.41
2023-05-11T23:23:23.732Z,96927.41
2023-05-11T23:26:25.153Z,96925.75
2023-05-11T23:29:27.923Z,96918.38
2023-05-11T23:32:29.472Z,96919.03
2023-05-11T23:35:31.172Z,96914.38
2023-05-11T23:38:32.784Z,96916.38
2023-05-11T23:41:34.402Z,96914.72
2023-05-11T23:44:36.350Z,96918.84
2023-05-11T23:47:37.932Z,96913.38
2023-05-11T23:50:39.599Z,96906.72
2023-05-11T23:53:41.177Z,96912.72
2023-05-11T23:56:44.185Z,96908.28
2023-05-11T23:59:45.633Z,96906.81
